createdAt,value
2023-01-09T00:02:31.718Z,3.37
2023-01-09T00:05:06.099Z,3.38
2023-01-09T00:07:43.358Z,3.39
2023-01-09T00:10:18.686Z,3.40
2023-01-09T00:12:50.121Z,3.40
2023-01-09T00:15:18.725Z,3.39
2023-01-09T00:17:48.234Z,3.38
2023-01-09T00:20:21.463Z,3.36
2023-01-09T00:22:53.495Z,3.31
2023-01-09T00:25:42.420Z,3.23
2023-01-09T00:28:16.858Z,3.15
2023-01-09T00:31:03.546Z,3.06
2023-01-09T00:34:06.353Z,2.97
2023-01-09T00:36:43.667Z,2.88
2023-01-09T00:39:22.651Z,2.83
2023-01-09T00:42:37.747Z,2.79
2023-01-09T00:45:29.969Z,2.73
2023-01-09T00:48:30.687Z,2.67
2023-01-09T00:52:18.741Z,2.58
2023-01-09T00:54:53.528Z,2.51
2023-01-09T00:57:22.009Z,2.47
2023-01-09T00:59:52.147Z,2.43
2023-01-09T01:02:35.342Z,2.39
2023-01-09T01:05:28.475Z,2.37
2023-01-09T01:08:32.733Z,2.34
2023-01-09T01:11:22.846Z,2.31
2023-01-09T01:14:01.444Z,2.29
2023-01-09T01:16:42.315Z,2.28
2023-01-09T01:19:51.427Z,2.26
2023-01-09T01:22:48.513Z,2.24
2023-01-09T01:25:22.296Z,2.22
2023-01-09T01:28:12.916Z,2.22
2023-01-09T01:30:44.639Z,2.21
2023-01-09T01:33:20.913Z,2.21
2023-01-09T01:35:59.370Z,2.21
2023-01-09T01:38:29.520Z,2.20
2023-01-09T01:40:59.213Z,2.21
2023-01-09T01:43:27.707Z,2.19
2023-01-09T01:45:59.389Z,2.19
2023-01-09T01:48:30.796Z,2.15
2023-01-09T01:51:10.255Z,2.11
2023-01-09T01:53:54.140Z,2.07
2023-01-09T01:56:38.686Z,2.03
2023-01-09T01:59:26.850Z,2.00
2023-01-09T02:02:00.646Z,1.97
2023-01-09T02:04:31.184Z,1.94
2023-01-09T02:07:11.031Z,1.93
2023-01-09T02:09:45.270Z,1.94
2023-01-09T02:12:15.944Z,1.94
2023-01-09T02:15:07.906Z,1.94
2023-01-09T02:18:40.029Z,1.92
2023-01-09T02:21:37.128Z,1.91
2023-01-09T02:24:47.952Z,1.92
2023-01-09T02:27:50.637Z,1.93
2023-01-09T02:30:48.971Z,1.89
2023-01-09T02:34:24.467Z,1.87
2023-01-09T02:38:27.012Z,1.83
2023-01-09T02:42:11.421Z,1.81
2023-01-09T02:45:12.517Z,1.76
2023-01-09T02:49:12.727Z,1.72
2023-01-09T02:52:01.800Z,1.72
2023-01-09T02:54:48.622Z,1.72
2023-01-09T02:57:22.627Z,1.70
2023-01-09T03:00:02.309Z,1.71
2023-01-09T03:02:55.386Z,1.73
2023-01-09T03:06:01.415Z,1.75
2023-01-09T03:08:49.043Z,1.75
2023-01-09T03:11:17.542Z,1.79
2023-01-09T03:13:53.697Z,1.84
2023-01-09T03:16:27.512Z,1.88
2023-01-09T03:18:57.565Z,1.93
2023-01-09T03:21:27.851Z,1.98
2023-01-09T03:23:58.645Z,1.98
2023-01-09T03:26:31.276Z,2.03
2023-01-09T03:29:00.334Z,2.04
2023-01-09T03:31:28.913Z,2.05
2023-01-09T03:33:57.150Z,2.00
2023-01-09T03:36:25.787Z,1.92
2023-01-09T03:38:54.071Z,1.92
2023-01-09T03:41:22.982Z,1.98
2023-01-09T03:50:55.439Z,2.14
2023-01-09T04:01:42.592Z,2.11
2023-01-09T04:04:46.568Z,2.10
2023-01-09T04:07:33.479Z,2.15
2023-01-09T04:10:30.646Z,2.18
2023-01-09T04:14:16.063Z,2.18
2023-01-09T04:17:22.236Z,2.15
2023-01-09T04:20:29.873Z,2.14
2023-01-09T04:23:36.885Z,2.13
2023-01-09T04:27:25.284Z,2.18
2023-01-09T04:30:39.301Z,2.22
2023-01-09T04:33:35.772Z,2.24
2023-01-09T04:39:38.948Z,2.30
2023-01-09T04:45:53.966Z,2.32
2023-01-09T04:48:24.223Z,2.29
2023-01-09T04:50:52.490Z,2.28
2023-01-09T04:53:20.995Z,2.26
2023-01-09T04:55:49.188Z,2.25
2023-01-09T04:58:19.900Z,2.24
2023-01-09T05:00:50.632Z,2.24
2023-01-09T05:03:19.054Z,2.23
2023-01-09T05:05:51.084Z,2.18
2023-01-09T05:08:19.282Z,2.11
2023-01-09T05:10:47.615Z,2.07
2023-01-09T05:13:15.974Z,2.03
2023-01-09T05:15:44.194Z,2.01
2023-01-09T05:18:12.465Z,1.96
2023-01-09T05:20:40.957Z,1.95
2023-01-09T05:23:09.367Z,1.93
2023-01-09T05:25:38.255Z,1.90
2023-01-09T05:28:06.458Z,1.88
2023-01-09T05:30:35.205Z,1.86
2023-01-09T05:33:04.744Z,1.86
2023-01-09T05:35:33.021Z,1.85
2023-01-09T05:38:01.588Z,1.86
2023-01-09T05:40:39.542Z,1.83
2023-01-09T05:43:08.761Z,1.78
2023-01-09T05:45:37.222Z,1.77
2023-01-09T05:48:06.072Z,1.74
2023-01-09T05:50:34.379Z,1.73
2023-01-09T05:53:02.579Z,1.73
2023-01-09T05:55:30.647Z,1.72
2023-01-09T05:57:59.250Z,1.72
2023-01-09T06:00:27.637Z,1.73
2023-01-09T06:02:56.224Z,1.72
2023-01-09T06:05:24.581Z,1.73
2023-01-09T06:07:53.196Z,1.71
2023-01-09T06:10:21.817Z,1.71
2023-01-09T06:12:51.874Z,1.69
2023-01-09T06:15:20.954Z,1.68
2023-01-09T06:17:49.128Z,1.65
2023-01-09T06:20:17.395Z,1.62
2023-01-09T06:22:47.101Z,1.59
2023-01-09T06:25:17.875Z,1.56
2023-01-09T06:27:46.645Z,1.53
2023-01-09T06:30:14.895Z,1.53
2023-01-09T06:32:43.908Z,1.55
2023-01-09T06:35:12.119Z,1.59
2023-01-09T06:37:40.958Z,1.63
2023-01-09T06:40:09.975Z,1.70
2023-01-09T06:42:38.242Z,1.74
2023-01-09T06:45:07.332Z,1.78
2023-01-09T06:47:35.641Z,1.81
2023-01-09T06:50:04.537Z,1.84
2023-01-09T06:52:32.710Z,1.86
2023-01-09T06:55:01.143Z,1.88
2023-01-09T06:57:33.298Z,1.90
2023-01-09T07:00:04.200Z,1.92
2023-01-09T07:02:32.651Z,1.93
2023-01-09T07:05:01.096Z,1.93
2023-01-09T07:07:30.530Z,1.94
2023-01-09T07:09:59.040Z,1.94
2023-01-09T07:12:27.695Z,1.95
2023-01-09T07:14:57.607Z,1.99
2023-01-09T07:17:26.375Z,2.02
2023-01-09T07:19:54.774Z,2.06
2023-01-09T07:22:23.702Z,2.11
2023-01-09T07:24:51.934Z,2.17
2023-01-09T07:27:20.440Z,2.21
2023-01-09T07:29:51.489Z,2.24
2023-01-09T07:32:20.101Z,2.27
2023-01-09T07:34:49.441Z,2.29
2023-01-09T07:37:17.845Z,2.32
2023-01-09T07:39:46.523Z,2.37
2023-01-09T07:42:15.431Z,2.40
2023-01-09T07:44:43.740Z,2.43
2023-01-09T07:47:12.047Z,2.45
2023-01-09T07:49:40.481Z,2.45
2023-01-09T07:52:08.908Z,2.44
2023-01-09T07:54:37.358Z,2.43
2023-01-09T07:57:05.768Z,2.42
2023-01-09T07:59:34.020Z,2.42
2023-01-09T08:02:05.818Z,2.42
2023-01-09T08:04:34.566Z,2.44
2023-01-09T08:07:04.979Z,2.45
2023-01-09T08:09:33.371Z,2.45
2023-01-09T08:12:04.582Z,2.45
2023-01-09T08:14:32.911Z,2.46
2023-01-09T08:17:03.329Z,2.44
2023-01-09T08:19:31.632Z,2.40
2023-01-09T08:21:59.954Z,2.39
2023-01-09T08:24:28.221Z,2.36
2023-01-09T08:26:56.257Z,2.34
2023-01-09T08:29:24.740Z,2.34
2023-01-09T08:31:52.893Z,2.31
2023-01-09T08:34:21.104Z,2.30
2023-01-09T08:36:49.383Z,2.32
2023-01-09T08:39:20.338Z,2.33
2023-01-09T08:42:07.538Z,2.32
2023-01-09T08:44:54.878Z,2.32
2023-01-09T08:47:24.619Z,2.32
2023-01-09T08:49:53.366Z,2.34
2023-01-09T08:52:21.792Z,2.37
2023-01-09T08:54:50.077Z,2.38
2023-01-09T08:57:18.560Z,2.40
2023-01-09T08:59:46.853Z,2.42
2023-01-09T09:02:15.116Z,2.45
2023-01-09T09:04:44.570Z,2.49
2023-01-09T09:07:12.853Z,2.53
2023-01-09T09:09:41.330Z,2.55
2023-01-09T09:12:10.624Z,2.56
2023-01-09T09:14:57.594Z,2.59
2023-01-09T09:17:27.151Z,2.61
2023-01-09T09:19:55.409Z,2.64
2023-01-09T09:22:23.773Z,2.69
2023-01-09T09:24:52.482Z,2.76
2023-01-09T09:27:21.355Z,2.81
2023-01-09T09:29:49.605Z,2.84
2023-01-09T09:32:18.377Z,2.86
2023-01-09T09:34:46.888Z,2.88
2023-01-09T09:37:15.344Z,2.88
2023-01-09T09:39:44.038Z,2.87
2023-01-09T09:42:54.011Z,2.82
2023-01-09T09:45:44.031Z,2.73
2023-01-09T09:48:32.880Z,2.67
2023-01-09T09:51:19.709Z,2.64
2023-01-09T09:54:00.138Z,2.60
2023-01-09T09:56:52.779Z,2.60
2023-01-09T09:59:33.738Z,2.61
2023-01-09T10:02:15.000Z,2.60
2023-01-09T10:04:49.197Z,2.61
2023-01-09T10:07:27.455Z,2.62
2023-01-09T10:10:01.102Z,2.65
2023-01-09T10:12:33.668Z,2.69
2023-01-09T10:15:15.584Z,2.73
2023-01-09T10:17:45.662Z,2.78
2023-01-09T10:20:34.343Z,2.83
2023-01-09T10:23:39.559Z,2.89
2023-01-09T10:26:26.491Z,2.94
2023-01-09T10:29:12.018Z,2.95
2023-01-09T10:31:49.762Z,2.98
2023-01-09T10:34:49.717Z,2.99
2023-01-09T10:37:27.224Z,2.99
2023-01-09T10:40:33.177Z,3.01
2023-01-09T10:43:09.885Z,3.04
2023-01-09T10:45:44.442Z,3.07
2023-01-09T10:48:26.355Z,3.08
2023-01-09T10:50:57.175Z,3.09
2023-01-09T10:53:43.277Z,3.10
2023-01-09T10:56:37.567Z,3.10
2023-01-09T10:59:08.578Z,3.12
2023-01-09T11:01:40.201Z,3.11
2023-01-09T11:04:29.820Z,3.13
2023-01-09T11:07:06.313Z,3.16
2023-01-09T11:09:59.226Z,3.18
2023-01-09T11:12:33.195Z,3.22
2023-01-09T11:15:30.994Z,3.25
2023-01-09T11:18:21.274Z,3.32
2023-01-09T11:20:49.649Z,3.37
2023-01-09T11:23:33.429Z,3.45
2023-01-09T11:26:03.288Z,3.53
2023-01-09T11:28:31.933Z,3.61
2023-01-09T11:31:02.996Z,3.65
2023-01-09T11:33:38.237Z,3.70
2023-01-09T11:36:08.209Z,3.75
2023-01-09T11:38:58.745Z,3.80
2023-01-09T11:41:36.807Z,3.85
2023-01-09T11:44:05.612Z,3.88
2023-01-09T11:46:38.799Z,3.91
2023-01-09T11:49:18.039Z,3.95
2023-01-09T11:51:46.711Z,3.98
2023-01-09T11:54:17.894Z,4.00
2023-01-09T11:56:48.660Z,4.01
2023-01-09T11:59:26.602Z,4.02
2023-01-09T12:02:16.409Z,4.02
2023-01-09T12:05:12.855Z,4.02
2023-01-09T12:07:59.842Z,4.02
2023-01-09T12:10:49.766Z,4.03
2023-01-09T12:13:23.876Z,4.04
2023-01-09T12:16:19.854Z,4.04
2023-01-09T12:19:06.691Z,4.06
2023-01-09T12:21:56.535Z,4.08
2023-01-09T12:24:55.648Z,4.12
2023-01-09T12:27:52.900Z,4.14
2023-01-09T12:30:39.973Z,4.17
2023-01-09T12:33:26.797Z,4.20
2023-01-09T12:36:04.724Z,4.26
2023-01-09T12:39:03.569Z,4.29
2023-01-09T12:42:12.154Z,4.34
2023-01-09T12:44:53.059Z,4.40
2023-01-09T12:47:33.775Z,4.44
2023-01-09T12:50:14.732Z,4.49
2023-01-09T12:53:08.323Z,4.54
2023-01-09T12:55:42.791Z,4.61
2023-01-09T12:58:26.040Z,4.65
2023-01-09T13:00:55.931Z,4.71
2023-01-09T13:03:48.613Z,4.77
2023-01-09T13:06:20.687Z,4.82
2023-01-09T13:09:04.869Z,4.86
2023-01-09T13:11:45.178Z,4.92
2023-01-09T13:14:25.751Z,4.97
2023-01-09T13:16:57.354Z,5.02
2023-01-09T13:19:29.390Z,5.07
2023-01-09T13:22:00.388Z,5.11
2023-01-09T13:24:43.416Z,5.14
2023-01-09T13:27:20.419Z,5.17
2023-01-09T13:29:55.795Z,5.18
2023-01-09T13:32:46.863Z,5.20
2023-01-09T13:35:16.141Z,5.23
2023-01-09T13:37:52.097Z,5.24
2023-01-09T13:40:20.351Z,5.25
2023-01-09T13:43:13.928Z,5.27
2023-01-09T13:45:42.977Z,5.29
2023-01-09T13:48:12.239Z,5.30
2023-01-09T13:50:42.135Z,5.32
2023-01-09T13:53:19.426Z,5.32
2023-01-09T13:55:59.896Z,5.33
2023-01-09T13:58:37.702Z,5.34
2023-01-09T14:01:35.572Z,5.35
2023-01-09T14:04:09.947Z,5.37
2023-01-09T14:06:38.811Z,5.36
2023-01-09T14:09:22.182Z,5.36
2023-01-09T14:12:03.787Z,5.35
2023-01-09T14:14:34.170Z,5.34
2023-01-09T14:17:24.810Z,5.33
2023-01-09T14:20:00.234Z,5.31
2023-01-09T14:22:42.337Z,5.31
2023-01-09T14:25:24.975Z,5.32
2023-01-09T14:27:59.764Z,5.31
2023-01-09T14:30:27.990Z,5.31
2023-01-09T14:33:15.891Z,5.31
2023-01-09T14:35:51.912Z,5.29
2023-01-09T14:38:31.732Z,5.29
2023-01-09T14:41:51.457Z,5.28
2023-01-09T14:44:30.405Z,5.28
2023-01-09T14:47:07.185Z,5.28
2023-01-09T14:49:43.584Z,5.29
2023-01-09T14:52:32.054Z,5.27
2023-01-09T14:55:04.311Z,5.26
2023-01-09T14:57:34.819Z,5.26
2023-01-09T15:00:18.051Z,5.25
2023-01-09T15:02:48.412Z,5.25
2023-01-09T15:05:23.723Z,5.25
2023-01-09T15:07:52.331Z,5.23
2023-01-09T15:10:25.137Z,5.21
2023-01-09T15:12:56.068Z,5.18
2023-01-09T15:15:25.532Z,5.16
2023-01-09T15:18:04.534Z,5.13
2023-01-09T15:20:35.185Z,5.10
2023-01-09T15:23:06.492Z,5.06
2023-01-09T15:25:40.510Z,5.03
2023-01-09T15:28:31.073Z,5.01
2023-01-09T15:31:18.514Z,4.97
2023-01-09T15:33:48.376Z,4.96
2023-01-09T15:36:25.795Z,4.96
2023-01-09T15:38:55.389Z,4.96
2023-01-09T15:41:45.452Z,4.95
2023-01-09T15:44:22.973Z,4.94
2023-01-09T15:46:52.203Z,4.93
2023-01-09T15:49:20.965Z,4.92
2023-01-09T15:51:50.526Z,4.91
2023-01-09T15:54:35.457Z,4.89
2023-01-09T15:57:31.069Z,4.87
2023-01-09T16:00:41.836Z,4.85
2023-01-09T16:03:21.810Z,4.83
2023-01-09T16:06:03.698Z,4.83
2023-01-09T16:08:39.763Z,4.85
2023-01-09T16:11:20.254Z,4.85
2023-01-09T16:13:48.512Z,4.85
2023-01-09T16:16:31.209Z,4.84
2023-01-09T16:18:59.776Z,4.84
2023-01-09T16:21:34.840Z,4.82
2023-01-09T16:24:38.276Z,4.80
2023-01-09T16:27:28.811Z,4.77
2023-01-09T16:30:08.462Z,4.76
2023-01-09T16:32:47.523Z,4.75
2023-01-09T16:35:28.833Z,4.75
2023-01-09T16:37:57.254Z,4.74
2023-01-09T16:40:26.924Z,4.73
2023-01-09T16:43:01.713Z,4.70
2023-01-09T16:45:41.079Z,4.67
2023-01-09T16:48:16.163Z,4.66
2023-01-09T16:50:44.955Z,4.62
2023-01-09T16:53:19.681Z,4.60
2023-01-09T16:55:53.415Z,4.58
2023-01-09T16:58:34.687Z,4.55
2023-01-09T17:01:03.537Z,4.51
2023-01-09T17:03:31.814Z,4.49
2023-01-09T17:06:01.738Z,4.44
2023-01-09T17:08:35.867Z,4.41
2023-01-09T17:11:05.261Z,4.39
2023-01-09T17:13:43.250Z,4.37
2023-01-09T17:16:12.025Z,4.34
2023-01-09T17:18:43.328Z,4.32
2023-01-09T17:21:19.226Z,4.31
2023-01-09T17:24:09.613Z,4.28
2023-01-09T17:26:58.391Z,4.23
2023-01-09T17:29:28.305Z,4.19
2023-01-09T17:31:58.388Z,4.18
2023-01-09T17:34:28.054Z,4.18
2023-01-09T17:36:59.381Z,4.18
2023-01-09T17:39:28.561Z,4.19
2023-01-09T17:41:59.211Z,4.18
2023-01-09T17:44:27.820Z,4.17
2023-01-09T17:46:56.255Z,4.20
2023-01-09T17:49:27.225Z,4.23
2023-01-09T17:51:56.025Z,4.26
2023-01-09T17:54:24.654Z,4.29
2023-01-09T17:56:54.345Z,4.32
2023-01-09T17:59:31.821Z,4.35
2023-01-09T18:02:00.135Z,4.39
2023-01-09T18:04:28.520Z,4.40
2023-01-09T18:06:56.807Z,4.38
2023-01-09T18:09:25.183Z,4.35
2023-01-09T18:11:53.549Z,4.28
2023-01-09T18:14:22.124Z,4.21
2023-01-09T18:16:50.408Z,4.14
2023-01-09T18:19:19.172Z,4.07
2023-01-09T18:21:59.236Z,3.98
2023-01-09T18:24:27.526Z,3.90
2023-01-09T18:26:55.824Z,3.84
2023-01-09T18:29:24.411Z,3.80
2023-01-09T18:31:52.988Z,3.77
2023-01-09T18:34:21.889Z,3.74
2023-01-09T18:36:50.100Z,3.73
2023-01-09T18:39:18.437Z,3.74
2023-01-09T18:41:49.329Z,3.75
2023-01-09T18:44:21.996Z,3.75
2023-01-09T18:46:51.218Z,3.76
2023-01-09T18:49:19.535Z,3.79
2023-01-09T18:51:47.928Z,3.82
2023-01-09T18:54:16.195Z,3.85
2023-01-09T18:56:45.167Z,3.86
2023-01-09T18:59:13.871Z,3.89
2023-01-09T19:01:43.598Z,3.91
2023-01-09T19:04:12.099Z,3.95
2023-01-09T19:06:40.954Z,4.02
2023-01-09T19:09:18.358Z,4.06
2023-01-09T19:11:46.745Z,4.09
2023-01-09T19:14:15.568Z,4.12
2023-01-09T19:16:44.279Z,4.13
2023-01-09T19:19:13.015Z,4.13
2023-01-09T19:21:41.270Z,4.16
2023-01-09T19:24:09.500Z,4.18
2023-01-09T19:26:38.115Z,4.18
2023-01-09T19:29:25.380Z,4.18
2023-01-09T19:31:53.933Z,4.16
2023-01-09T19:34:24.398Z,4.14
2023-01-09T19:36:53.540Z,4.13
2023-01-09T19:39:25.097Z,4.12
2023-01-09T19:41:53.647Z,4.11
2023-01-09T19:44:22.139Z,4.09
2023-01-09T19:46:51.935Z,4.07
2023-01-09T19:49:20.151Z,4.06
2023-01-09T19:51:57.941Z,4.04
2023-01-09T19:54:54.287Z,4.01
2023-01-09T19:57:23.393Z,3.99
2023-01-09T19:59:54.963Z,3.94
2023-01-09T20:02:23.614Z,3.89
2023-01-09T20:04:51.969Z,3.83
2023-01-09T20:07:21.561Z,3.78
2023-01-09T20:09:52.639Z,3.71
2023-01-09T20:12:21.127Z,3.65
2023-01-09T20:14:49.856Z,3.59
2023-01-09T20:17:19.933Z,3.53
2023-01-09T20:19:48.167Z,3.48
2023-01-09T20:22:16.417Z,3.44
2023-01-09T20:24:45.898Z,3.40
2023-01-09T20:27:14.291Z,3.37
2023-01-09T20:29:42.612Z,3.33
2023-01-09T20:32:11.289Z,3.29
2023-01-09T20:35:06.498Z,3.29
2023-01-09T20:37:34.837Z,3.30
2023-01-09T20:40:03.246Z,3.27
2023-01-09T20:42:31.853Z,3.25
2023-01-09T20:45:03.126Z,3.25
2023-01-09T20:47:31.558Z,3.25
2023-01-09T20:50:00.031Z,3.25
2023-01-09T20:52:28.673Z,3.23
2023-01-09T20:54:57.373Z,3.20
2023-01-09T20:57:28.610Z,3.19
2023-01-09T20:59:56.938Z,3.16
2023-01-09T21:02:25.300Z,3.10
2023-01-09T21:04:53.588Z,3.04
2023-01-09T21:07:24.576Z,2.96
2023-01-09T21:09:53.039Z,2.89
2023-01-09T21:12:28.206Z,2.85
2023-01-09T21:15:02.203Z,2.82
2023-01-09T21:17:39.405Z,2.82
2023-01-09T21:20:15.151Z,2.86
2023-01-09T21:23:39.714Z,2.92
2023-01-09T21:26:47.722Z,2.97
2023-01-09T21:29:16.703Z,3.00
2023-01-09T21:31:45.191Z,3.04
2023-01-09T21:34:15.915Z,3.09
2023-01-09T21:36:45.338Z,3.14
2023-01-09T21:39:13.869Z,3.19
2023-01-09T21:42:30.072Z,3.21
2023-01-09T21:45:14.604Z,3.23
2023-01-09T21:49:05.495Z,3.33
2023-01-09T21:53:07.760Z,3.38
2023-01-09T21:55:36.338Z,3.38
2023-01-09T21:58:08.335Z,3.37
2023-01-09T22:00:42.723Z,3.36
2023-01-09T22:03:56.713Z,3.37
2023-01-09T22:06:46.339Z,3.42
2023-01-09T22:09:15.958Z,3.48
2023-01-09T22:12:45.229Z,3.53
2023-01-09T22:16:03.464Z,3.58
2023-01-09T22:19:32.240Z,3.59
2023-01-09T22:23:22.188Z,3.64
2023-01-09T22:26:13.531Z,3.63
2023-01-09T22:29:42.038Z,3.67
2023-01-09T22:33:17.291Z,3.65
2023-01-09T22:36:53.380Z,3.53
2023-01-09T22:39:44.442Z,3.36
2023-01-09T22:42:52.639Z,3.22
2023-01-09T22:46:43.243Z,3.01
2023-01-09T22:49:20.855Z,2.80
2023-01-09T22:51:49.365Z,2.68
2023-01-09T22:54:22.667Z,2.55
2023-01-09T22:57:46.810Z,2.47
2023-01-09T23:01:28.727Z,2.38
2023-01-09T23:04:55.877Z,2.33
2023-01-09T23:07:59.884Z,2.29
2023-01-09T23:12:22.566Z,2.24
2023-01-09T23:15:43.986Z,2.20
2023-01-09T23:19:31.509Z,2.19
2023-01-09T23:23:44.806Z,2.22
2023-01-09T23:27:22.906Z,2.26
2023-01-09T23:30:31.372Z,2.25
2023-01-09T23:33:39.435Z,2.24
2023-01-09T23:37:29.832Z,2.22
2023-01-09T23:41:04.961Z,2.15
2023-01-09T23:44:35.864Z,2.09
2023-01-09T23:47:57.299Z,2.03
2023-01-09T23:51:29.807Z,1.97
2023-01-09T23:54:53.576Z,1.99
2023-01-09T23:58:46.073Z,2.06
